createdAt,value
2022-08-07T00:02:36.291Z,10.58
2022-08-07T00:07:24.076Z,10.51
2022-08-07T00:12:32.094Z,10.44
2022-08-07T00:17:36.018Z,10.38
2022-08-07T00:22:39.333Z,10.32
2022-08-07T00:27:52.224Z,10.28
2022-08-07T00:32:58.154Z,10.24
2022-08-07T00:38:01.752Z,10.21
2022-08-07T00:43:09.639Z,10.18
2022-08-07T00:48:14.104Z,10.15
2022-08-07T00:53:17.931Z,10.13
2022-08-07T00:58:23.596Z,10.11
2022-08-07T01:03:56.056Z,10.11
2022-08-07T01:08:53.277Z,10.11
2022-08-07T01:13:57.189Z,10.10
2022-08-07T01:19:00.802Z,10.08
2022-08-07T01:24:07.903Z,10.07
2022-08-07T01:29:11.621Z,10.06
2022-08-07T01:34:14.933Z,10.04
2022-08-07T01:39:18.693Z,10.02
2022-08-07T01:44:24.011Z,10.00
2022-08-07T01:49:31.809Z,9.98
2022-08-07T01:54:37.503Z,9.98
2022-08-07T01:59:49.816Z,9.99
2022-08-07T02:05:03.840Z,9.99
2022-08-07T02:10:09.035Z,9.99
2022-08-07T02:15:22.701Z,9.99
2022-08-07T02:20:26.404Z,9.98
2022-08-07T02:26:10.705Z,9.96
2022-08-07T02:30:56.577Z,9.94
2022-08-07T02:36:28.754Z,9.94
2022-08-07T02:41:25.355Z,9.92
2022-08-07T02:46:37.743Z,9.93
2022-08-07T02:51:52.229Z,9.94
2022-08-07T02:56:56.654Z,9.94
2022-08-07T03:02:01.123Z,9.93
2022-08-07T03:07:10.472Z,9.96
2022-08-07T03:12:22.380Z,9.99
2022-08-07T03:17:36.450Z,10.02
2022-08-07T03:22:58.617Z,10.07
2022-08-07T03:28:09.402Z,10.12
2022-08-07T03:33:27.105Z,10.21
2022-08-07T03:38:35.945Z,10.30
2022-08-07T03:43:44.053Z,10.40
2022-08-07T03:49:02.511Z,10.53
2022-08-07T03:54:36.538Z,10.69
2022-08-07T03:59:30.146Z,10.89
2022-08-07T04:04:33.251Z,11.26
2022-08-07T04:09:44.831Z,12.88
2022-08-07T04:14:53.800Z,15.47
2022-08-07T04:19:59.467Z,17.72
2022-08-07T04:25:08.840Z,19.66
2022-08-07T04:30:21.385Z,21.32
2022-08-07T04:35:39.608Z,22.69
2022-08-07T04:40:52.439Z,23.74
2022-08-07T04:46:05.991Z,24.52
2022-08-07T04:51:27.809Z,25.16
2022-08-07T04:58:16.377Z,25.58
2022-08-07T05:02:16.664Z,26.07
2022-08-07T05:07:30.397Z,26.63
2022-08-07T05:12:46.235Z,27.05
2022-08-07T05:18:08.996Z,27.75
2022-08-07T05:23:16.454Z,28.42
2022-08-07T05:28:23.378Z,29.05
2022-08-07T05:33:31.705Z,29.61
2022-08-07T05:39:00.462Z,30.21
2022-08-07T05:44:11.920Z,30.85
2022-08-07T05:49:16.351Z,31.33
2022-08-07T05:54:30.664Z,31.81
2022-08-07T05:59:57.463Z,32.42
2022-08-07T06:05:06.869Z,32.82
2022-08-07T06:10:11.222Z,33.30
2022-08-07T06:15:19.851Z,33.88
2022-08-07T06:20:32.073Z,34.54
2022-08-07T06:25:54.389Z,35.27
2022-08-07T06:31:00.068Z,35.79
2022-08-07T06:36:12.441Z,35.91
2022-08-07T06:41:47.630Z,36.03
2022-08-07T06:46:53.633Z,36.35
2022-08-07T06:52:16.266Z,36.94
2022-08-07T06:57:39.449Z,37.41
2022-08-07T07:02:54.051Z,37.94
2022-08-07T07:08:03.956Z,38.19
2022-08-07T07:13:43.511Z,38.53
2022-08-07T07:18:49.517Z,38.71
2022-08-07T07:24:08.378Z,37.62
2022-08-07T07:29:38.594Z,37.38
2022-08-07T07:34:42.560Z,37.65
2022-08-07T07:39:54.732Z,36.47
2022-08-07T07:45:00.353Z,35.39
2022-08-07T07:50:34.011Z,33.95
2022-08-07T07:55:37.630Z,34.11
2022-08-07T08:00:53.803Z,33.43
2022-08-07T08:05:57.828Z,31.81
2022-08-07T08:11:01.342Z,33.03
2022-08-07T08:16:07.966Z,33.47
2022-08-07T08:21:56.042Z,32.99
2022-08-07T08:27:09.346Z,33.66
2022-08-07T08:32:18.874Z,31.59
2022-08-07T08:38:01.186Z,30.11
2022-08-07T08:42:57.768Z,32.22
2022-08-07T08:48:07.016Z,34.68
2022-08-07T08:53:29.459Z,36.34
2022-08-07T08:58:36.575Z,36.13
2022-08-07T09:03:49.390Z,36.49
2022-08-07T09:08:55.690Z,37.14
2022-08-07T09:14:14.258Z,37.45
2022-08-07T09:19:52.315Z,37.89
2022-08-07T09:25:00.336Z,38.05
2022-08-07T09:30:10.788Z,37.73
2022-08-07T09:36:05.426Z,36.27
2022-08-07T09:40:53.656Z,34.90
2022-08-07T09:47:23.555Z,33.97
2022-08-07T09:52:15.745Z,32.85
2022-08-07T09:57:22.779Z,31.50
2022-08-07T10:02:53.685Z,31.00
2022-08-07T10:08:04.999Z,30.75
2022-08-07T10:13:54.986Z,30.22
2022-08-07T10:18:51.094Z,29.27
2022-08-07T10:24:22.208Z,29.00
2022-08-07T10:29:31.462Z,29.31
2022-08-07T10:34:57.056Z,29.39
2022-08-07T10:40:09.035Z,29.21
2022-08-07T10:45:19.582Z,28.58
2022-08-07T10:50:54.033Z,28.44
2022-08-07T10:56:20.631Z,28.09
2022-08-07T11:01:51.332Z,27.48
2022-08-07T11:07:03.974Z,27.02
2022-08-07T11:12:38.918Z,26.68
2022-08-07T11:17:53.994Z,26.34
2022-08-07T11:23:03.775Z,26.38
2022-08-07T11:28:15.365Z,26.61
2022-08-07T11:33:19.809Z,26.87
2022-08-07T11:38:42.886Z,27.22
2022-08-07T11:44:18.624Z,27.28
2022-08-07T11:49:50.171Z,27.05
2022-08-07T11:54:55.070Z,26.94
2022-08-07T12:00:10.137Z,26.89
2022-08-07T12:05:28.677Z,26.54
2022-08-07T12:10:49.040Z,26.23
2022-08-07T12:16:30.345Z,25.75
2022-08-07T12:22:38.120Z,24.93
2022-08-07T12:27:15.839Z,24.54
2022-08-07T12:32:22.362Z,24.27
2022-08-07T12:37:28.517Z,23.96
2022-08-07T12:42:55.177Z,23.75
2022-08-07T12:48:13.045Z,23.69
2022-08-07T12:54:03.489Z,23.52
2022-08-07T12:58:59.614Z,23.45
2022-08-07T13:04:18.969Z,23.26
2022-08-07T13:10:21.489Z,23.08
2022-08-07T13:15:23.767Z,23.15
2022-08-07T13:20:51.080Z,23.35
2022-08-07T13:26:15.865Z,23.47
2022-08-07T13:31:32.112Z,23.63
2022-08-07T13:36:59.552Z,23.83
2022-08-07T13:42:06.466Z,24.23
2022-08-07T13:47:15.935Z,24.28
2022-08-07T13:52:38.166Z,24.23
2022-08-07T13:57:59.144Z,24.18
2022-08-07T14:03:06.589Z,23.81
2022-08-07T14:08:10.420Z,23.63
2022-08-07T14:13:18.947Z,23.66
2022-08-07T14:18:35.041Z,23.63
2022-08-07T14:24:00.108Z,23.55
2022-08-07T14:34:30.626Z,23.21
2022-08-07T14:40:16.725Z,23.01
2022-08-07T14:45:21.258Z,22.94
2022-08-07T14:50:26.654Z,22.87
2022-08-07T14:55:34.738Z,22.79
2022-08-07T15:00:59.560Z,22.82
2022-08-07T15:06:26.370Z,22.92
2022-08-07T15:11:52.872Z,22.91
2022-08-07T15:16:59.104Z,22.88
2022-08-07T15:22:10.130Z,22.76
2022-08-07T15:38:30.516Z,22.75
2022-08-07T15:43:56.684Z,22.92
2022-08-07T15:49:04.018Z,22.86
2022-08-07T15:54:17.190Z,22.69
2022-08-07T15:59:39.188Z,22.44
2022-08-07T16:04:47.448Z,22.20
2022-08-07T16:09:54.637Z,21.86
2022-08-07T16:15:05.792Z,21.64
2022-08-07T16:20:32.904Z,21.64
2022-08-07T16:25:55.359Z,21.65
2022-08-07T16:31:11.816Z,21.59
2022-08-07T16:36:47.872Z,21.49
2022-08-07T16:42:16.006Z,21.43
2022-08-07T16:47:40.243Z,21.40
2022-08-07T16:52:52.655Z,21.42
2022-08-07T16:58:03.903Z,21.36
2022-08-07T17:03:07.412Z,21.34
2022-08-07T17:09:04.330Z,21.28
2022-08-07T17:14:19.461Z,21.18
2022-08-07T17:20:03.061Z,21.06
2022-08-07T17:25:02.020Z,20.86
2022-08-07T17:30:14.457Z,20.70
2022-08-07T17:35:50.880Z,20.60
2022-08-07T17:42:01.195Z,20.46
2022-08-07T17:46:40.870Z,20.27
2022-08-07T17:52:02.825Z,20.05
2022-08-07T17:57:19.630Z,19.82
2022-08-07T18:02:27.322Z,19.57
2022-08-07T18:07:37.369Z,19.34
2022-08-07T18:13:09.677Z,19.09
2022-08-07T18:18:46.564Z,18.89
2022-08-07T18:24:33.655Z,18.71
2022-08-07T18:30:05.377Z,18.51
2022-08-07T18:35:18.272Z,18.33
2022-08-07T18:40:44.046Z,18.16
2022-08-07T18:46:25.729Z,17.95
2022-08-07T18:52:51.729Z,17.74
2022-08-07T18:57:30.167Z,17.54
2022-08-07T19:03:04.209Z,17.37
2022-08-07T19:08:28.705Z,17.23
2022-08-07T19:13:45.260Z,17.09
2022-08-07T19:19:15.312Z,16.96
2022-08-07T19:24:30.855Z,16.88
2022-08-07T19:30:58.416Z,16.78
2022-08-07T19:35:14.103Z,16.65
2022-08-07T19:40:31.198Z,16.52
2022-08-07T19:46:04.952Z,16.40
2022-08-07T19:51:19.882Z,16.29
2022-08-07T19:57:51.887Z,16.20
2022-08-07T20:01:57.833Z,16.09
2022-08-07T20:07:01.587Z,16.01
2022-08-07T20:12:31.716Z,15.95
2022-08-07T20:17:35.988Z,15.84
2022-08-07T20:22:44.899Z,15.74
2022-08-07T20:27:54.293Z,15.69
2022-08-07T20:33:04.727Z,15.66
2022-08-07T20:38:18.697Z,15.63
2022-08-07T20:43:25.700Z,15.61
2022-08-07T20:48:33.861Z,15.61
2022-08-07T20:54:04.618Z,15.61
2022-08-07T20:59:05.409Z,15.62
2022-08-07T21:04:21.805Z,15.63
2022-08-07T21:09:35.451Z,15.63
2022-08-07T21:14:57.854Z,15.65
2022-08-07T21:20:06.168Z,15.66
2022-08-07T21:25:12.377Z,15.66
2022-08-07T21:30:18.230Z,15.65
2022-08-07T21:35:34.898Z,15.67
2022-08-07T21:40:49.681Z,15.67
2022-08-07T21:46:08.185Z,15.65
2022-08-07T21:51:50.965Z,15.63
2022-08-07T21:57:16.083Z,15.62
2022-08-07T22:02:41.272Z,15.63
2022-08-07T22:07:58.617Z,15.60
2022-08-07T22:13:09.525Z,15.56
2022-08-07T22:18:20.906Z,15.50
2022-08-07T22:23:27.248Z,15.45
2022-08-07T22:28:40.858Z,15.41
2022-08-07T22:33:57.702Z,15.35
2022-08-07T22:39:09.222Z,15.30
2022-08-07T22:44:18.357Z,15.24
2022-08-07T22:49:51.824Z,15.18
2022-08-07T22:55:29.920Z,15.12
2022-08-07T23:00:43.158Z,15.08
2022-08-07T23:06:06.993Z,15.04
2022-08-07T23:11:20.346Z,14.97
2022-08-07T23:16:46.722Z,14.90
2022-08-07T23:21:59.305Z,14.81
2022-08-07T23:27:33.501Z,14.72
2022-08-07T23:34:35.692Z,14.62
2022-08-07T23:38:36.650Z,14.53
2022-08-07T23:43:55.679Z,14.43
2022-08-07T23:49:15.271Z,14.35
2022-08-07T23:54:36.318Z,14.24
